createdAt,value
2022-11-26T00:01:16.521Z,41.60
2022-11-26T00:03:44.929Z,41.64
2022-11-26T00:06:26.824Z,41.71
2022-11-26T00:08:54.694Z,41.78
2022-11-26T00:11:22.774Z,41.62
2022-11-26T00:13:51.986Z,41.72
2022-11-26T00:16:19.897Z,41.90
2022-11-26T00:18:47.813Z,41.91
2022-11-26T00:21:22.045Z,41.57
2022-11-26T00:23:50.494Z,41.61
2022-11-26T00:26:21.238Z,41.70
2022-11-26T00:28:54.273Z,41.76
2022-11-26T00:31:22.624Z,41.86
2022-11-26T00:33:50.492Z,41.76
2022-11-26T00:36:22.039Z,41.76
2022-11-26T00:38:54.946Z,41.85
2022-11-26T00:41:25.151Z,41.65
2022-11-26T00:43:54.374Z,41.76
2022-11-26T00:46:23.349Z,41.62
2022-11-26T00:48:52.035Z,41.70
2022-11-26T00:51:22.911Z,41.63
2022-11-26T00:53:51.903Z,41.74
2022-11-26T00:56:21.509Z,41.79
2022-11-26T00:58:51.107Z,41.79
2022-11-26T01:01:22.648Z,41.60
2022-11-26T01:03:50.964Z,41.77
2022-11-26T01:06:21.325Z,41.57
2022-11-26T01:08:49.849Z,41.67
2022-11-26T01:11:20.395Z,41.55
2022-11-26T01:13:50.043Z,41.77
2022-11-26T01:16:23.809Z,41.78
2022-11-26T01:18:53.615Z,41.65
2022-11-26T01:21:22.840Z,41.59
2022-11-26T01:23:50.869Z,41.57
2022-11-26T01:26:22.696Z,41.59
2022-11-26T01:28:51.315Z,41.61
2022-11-26T01:31:23.471Z,41.74
2022-11-26T01:33:51.974Z,41.88
2022-11-26T01:36:23.855Z,41.72
2022-11-26T01:38:53.354Z,41.65
2022-11-26T01:41:30.738Z,41.70
2022-11-26T01:43:59.824Z,41.81
2022-11-26T01:46:32.028Z,41.72
2022-11-26T01:49:22.588Z,41.69
2022-11-26T01:51:54.637Z,41.73
2022-11-26T01:54:22.766Z,41.57
2022-11-26T01:56:53.583Z,41.65
2022-11-26T01:59:25.758Z,41.71
2022-11-26T02:01:58.722Z,41.75
2022-11-26T02:04:29.547Z,41.85
2022-11-26T02:06:58.634Z,41.75
2022-11-26T02:09:29.035Z,41.66
2022-11-26T02:11:57.554Z,41.64
2022-11-26T02:14:28.006Z,41.69
2022-11-26T02:17:14.638Z,41.72
2022-11-26T02:20:14.999Z,41.73
2022-11-26T02:23:18.104Z,41.61
2022-11-26T02:26:18.339Z,41.58
2022-11-26T02:29:04.224Z,41.70
2022-11-26T02:31:38.468Z,41.75
2022-11-26T02:34:14.811Z,41.67
2022-11-26T02:36:50.680Z,41.52
2022-11-26T02:39:21.548Z,41.63
2022-11-26T02:41:52.313Z,41.55
2022-11-26T02:44:24.264Z,41.69
2022-11-26T02:46:58.655Z,41.57
2022-11-26T02:49:28.496Z,41.69
2022-11-26T02:52:01.107Z,41.69
2022-11-26T02:54:29.989Z,41.71
2022-11-26T02:56:59.290Z,41.69
2022-11-26T02:59:27.415Z,41.56
2022-11-26T03:02:00.517Z,41.69
2022-11-26T03:04:34.023Z,41.80
2022-11-26T03:07:04.463Z,41.58
2022-11-26T03:09:41.569Z,41.63
2022-11-26T03:12:10.141Z,41.54
2022-11-26T03:14:38.412Z,41.64
2022-11-26T03:17:07.947Z,41.68
2022-11-26T03:19:35.778Z,41.73
2022-11-26T03:22:03.661Z,41.69
2022-11-26T03:24:31.659Z,41.71
2022-11-26T03:26:59.775Z,41.74
2022-11-26T03:29:27.903Z,41.65
2022-11-26T03:31:55.871Z,41.64
2022-11-26T03:34:25.470Z,41.82
2022-11-26T03:36:53.684Z,41.68
2022-11-26T03:39:21.695Z,41.76
2022-11-26T03:41:49.563Z,41.68
2022-11-26T03:44:17.428Z,41.73
2022-11-26T03:46:45.295Z,41.53
2022-11-26T03:49:13.356Z,41.80
2022-11-26T03:51:42.693Z,41.54
2022-11-26T03:54:10.900Z,41.67
2022-11-26T03:56:38.736Z,41.73
2022-11-26T03:59:07.215Z,41.45
2022-11-26T04:01:35.433Z,41.69
2022-11-26T04:04:03.587Z,41.67
2022-11-26T04:06:31.484Z,41.53
2022-11-26T04:09:00.755Z,41.78
2022-11-26T04:11:28.615Z,41.65
2022-11-26T04:13:56.565Z,41.69
2022-11-26T04:16:24.534Z,41.65
2022-11-26T04:18:52.503Z,41.58
2022-11-26T04:21:20.411Z,41.62
2022-11-26T04:23:48.315Z,41.65
2022-11-26T04:26:17.748Z,41.62
2022-11-26T04:28:45.744Z,41.65
2022-11-26T04:31:13.792Z,41.72
2022-11-26T04:33:41.699Z,41.63
2022-11-26T04:36:10.351Z,41.51
2022-11-26T04:38:38.571Z,41.68
2022-11-26T04:41:06.704Z,41.77
2022-11-26T04:43:36.114Z,41.79
2022-11-26T04:46:04.006Z,41.58
2022-11-26T04:48:31.918Z,41.65
2022-11-26T04:50:59.755Z,41.58
2022-11-26T04:53:27.624Z,41.59
2022-11-26T04:55:55.491Z,41.66
2022-11-26T04:58:23.411Z,41.50
2022-11-26T05:00:53.078Z,41.66
2022-11-26T05:03:21.077Z,41.65
2022-11-26T05:05:49.053Z,41.57
2022-11-26T05:08:16.921Z,41.70
2022-11-26T05:10:44.796Z,41.68
2022-11-26T05:13:12.648Z,41.55
2022-11-26T05:15:40.502Z,41.54
2022-11-26T05:18:09.929Z,41.73
2022-11-26T05:20:37.797Z,41.57
2022-11-26T05:23:05.689Z,41.54
2022-11-26T05:25:33.546Z,41.68
2022-11-26T05:28:01.444Z,41.71
2022-11-26T05:30:29.397Z,41.72
2022-11-26T05:32:57.261Z,41.59
2022-11-26T05:35:26.519Z,41.57
2022-11-26T05:37:56.711Z,41.74
2022-11-26T05:40:24.585Z,41.59
2022-11-26T05:42:52.461Z,41.53
2022-11-26T05:45:20.318Z,41.72
2022-11-26T05:47:48.415Z,41.56
2022-11-26T05:50:16.223Z,41.58
2022-11-26T05:52:45.435Z,41.62
2022-11-26T05:55:13.304Z,41.68
2022-11-26T05:57:41.175Z,41.64
2022-11-26T06:00:11.090Z,41.70
2022-11-26T06:02:39.340Z,41.62
2022-11-26T06:05:08.195Z,41.57
2022-11-26T06:07:39.356Z,41.58
2022-11-26T06:10:12.297Z,41.60
2022-11-26T06:12:40.171Z,41.62
2022-11-26T06:15:08.852Z,41.62
2022-11-26T06:17:36.806Z,41.74
2022-11-26T06:20:05.419Z,41.56
2022-11-26T06:22:37.820Z,41.82
2022-11-26T06:25:06.359Z,41.62
2022-11-26T06:27:35.690Z,41.60
2022-11-26T06:30:04.721Z,41.51
2022-11-26T06:32:33.111Z,41.67
2022-11-26T06:35:01.018Z,41.66
2022-11-26T06:37:28.979Z,41.66
2022-11-26T06:39:56.879Z,41.68
2022-11-26T06:42:24.763Z,41.68
2022-11-26T06:44:59.464Z,41.63
2022-11-26T06:47:28.130Z,41.80
2022-11-26T06:49:56.005Z,41.65
2022-11-26T06:52:23.870Z,41.74
2022-11-26T06:54:51.797Z,41.87
2022-11-26T06:57:19.668Z,41.84
2022-11-26T06:59:47.492Z,41.78
2022-11-26T07:02:16.803Z,41.76
2022-11-26T07:04:44.722Z,41.66
2022-11-26T07:07:12.646Z,41.79
2022-11-26T07:09:40.618Z,41.70
2022-11-26T07:12:08.738Z,41.71
2022-11-26T07:14:36.974Z,41.81
2022-11-26T07:17:05.164Z,41.84
2022-11-26T07:19:34.527Z,41.76
2022-11-26T07:22:02.475Z,41.81
2022-11-26T07:24:30.509Z,41.76
2022-11-26T07:26:58.580Z,41.75
2022-11-26T07:29:26.617Z,41.74
2022-11-26T07:31:54.538Z,41.82
2022-11-26T07:34:22.635Z,41.84
2022-11-26T07:36:56.670Z,41.74
2022-11-26T07:39:25.846Z,41.66
2022-11-26T07:41:53.767Z,41.88
2022-11-26T07:44:21.683Z,41.91
2022-11-26T07:46:49.626Z,41.89
2022-11-26T07:49:17.558Z,41.91
2022-11-26T07:51:45.591Z,41.80
2022-11-26T07:54:14.986Z,41.96
2022-11-26T07:56:42.962Z,41.80
2022-11-26T07:59:12.117Z,41.78
2022-11-26T08:01:40.179Z,41.88
2022-11-26T08:04:08.251Z,41.77
2022-11-26T08:06:36.154Z,41.92
2022-11-26T08:09:05.422Z,41.88
2022-11-26T08:11:35.444Z,41.98
2022-11-26T08:14:05.314Z,41.87
2022-11-26T08:16:33.586Z,41.83
2022-11-26T08:19:03.661Z,41.79
2022-11-26T08:21:31.559Z,41.89
2022-11-26T08:23:59.834Z,41.99
2022-11-26T08:26:35.039Z,41.85
2022-11-26T08:29:06.805Z,41.89
2022-11-26T08:31:35.045Z,41.88
2022-11-26T08:34:04.236Z,41.91
2022-11-26T08:36:32.529Z,41.82
2022-11-26T08:39:01.382Z,41.80
2022-11-26T08:41:29.372Z,41.91
2022-11-26T08:44:06.546Z,41.87
2022-11-26T08:46:37.084Z,41.88
2022-11-26T08:49:05.180Z,42.03
2022-11-26T08:51:33.215Z,41.95
2022-11-26T08:54:01.084Z,41.98
2022-11-26T08:56:29.031Z,41.85
2022-11-26T08:58:57.044Z,41.71
2022-11-26T09:01:26.880Z,41.76
2022-11-26T09:03:58.138Z,41.73
2022-11-26T09:06:28.108Z,41.92
2022-11-26T09:09:15.294Z,42.04
2022-11-26T09:11:45.874Z,41.92
2022-11-26T09:14:15.178Z,41.71
2022-11-26T09:16:43.108Z,41.88
2022-11-26T09:19:14.173Z,42.03
2022-11-26T09:21:42.107Z,41.94
2022-11-26T09:24:10.154Z,41.86
2022-11-26T09:26:38.101Z,41.85
2022-11-26T09:29:06.425Z,41.94
2022-11-26T09:31:34.572Z,41.90
2022-11-26T09:34:03.661Z,41.86
2022-11-26T09:36:33.112Z,41.92
2022-11-26T09:39:01.521Z,41.86
2022-11-26T09:41:42.196Z,42.01
2022-11-26T09:44:22.956Z,42.02
2022-11-26T09:47:11.911Z,41.89
2022-11-26T09:49:55.755Z,41.84
2022-11-26T09:52:28.024Z,41.94
2022-11-26T09:55:05.717Z,42.05
2022-11-26T09:57:41.190Z,42.05
2022-11-26T10:00:22.436Z,42.01
2022-11-26T10:02:53.439Z,42.08
2022-11-26T10:05:23.510Z,41.97
2022-11-26T10:08:07.153Z,42.19
2022-11-26T10:10:42.893Z,42.06
2022-11-26T10:13:23.081Z,42.22
2022-11-26T10:16:01.176Z,42.21
2022-11-26T10:18:41.469Z,42.13
2022-11-26T10:21:32.592Z,42.10
2022-11-26T10:24:20.696Z,42.12
2022-11-26T10:26:50.245Z,41.93
2022-11-26T10:29:23.474Z,42.12
2022-11-26T10:31:56.305Z,42.02
2022-11-26T10:34:33.382Z,42.01
2022-11-26T10:37:03.925Z,41.98
2022-11-26T10:39:33.280Z,42.17
2022-11-26T10:42:05.477Z,42.08
2022-11-26T10:44:37.373Z,42.03
2022-11-26T10:47:27.547Z,42.25
2022-11-26T10:49:57.012Z,42.12
2022-11-26T10:52:28.495Z,42.10
2022-11-26T10:55:20.930Z,42.33
2022-11-26T10:57:54.260Z,42.24
2022-11-26T11:00:37.699Z,42.27
2022-11-26T11:03:07.784Z,42.08
2022-11-26T11:05:35.969Z,42.19
2022-11-26T11:08:04.199Z,42.13
2022-11-26T11:10:34.554Z,42.16
2022-11-26T11:13:10.336Z,42.31
2022-11-26T11:15:40.471Z,42.31
2022-11-26T11:18:18.806Z,42.40
2022-11-26T11:20:55.059Z,42.23
2022-11-26T11:23:39.952Z,42.03
2022-11-26T11:26:19.359Z,42.24
2022-11-26T11:28:50.073Z,42.21
2022-11-26T11:31:21.248Z,42.20
2022-11-26T11:33:50.200Z,42.41
2022-11-26T11:36:28.581Z,42.39
2022-11-26T11:38:58.518Z,42.28
2022-11-26T11:41:34.459Z,42.62
2022-11-26T11:44:07.649Z,42.42
2022-11-26T11:47:13.000Z,42.47
2022-11-26T11:49:51.991Z,42.39
2022-11-26T11:52:31.904Z,42.26
2022-11-26T11:55:07.257Z,42.45
2022-11-26T11:58:05.918Z,42.46
2022-11-26T12:00:42.350Z,42.31
2022-11-26T12:03:44.732Z,42.40
2022-11-26T12:06:22.358Z,42.38
2022-11-26T12:09:01.805Z,42.45
2022-11-26T12:11:43.355Z,42.53
2022-11-26T12:14:22.157Z,42.49
2022-11-26T12:16:55.017Z,42.45
2022-11-26T12:19:29.999Z,42.50
2022-11-26T12:22:03.061Z,42.31
2022-11-26T12:24:40.682Z,42.46
2022-11-26T12:27:17.734Z,42.40
2022-11-26T12:29:53.249Z,42.54
2022-11-26T12:32:26.854Z,42.54
2022-11-26T12:34:59.852Z,42.32
2022-11-26T12:37:31.683Z,42.56
2022-11-26T12:40:05.177Z,42.40
2022-11-26T12:42:42.034Z,42.43
2022-11-26T12:45:21.262Z,42.54
2022-11-26T12:47:55.836Z,42.63
2022-11-26T12:50:35.094Z,42.51
2022-11-26T12:53:29.403Z,42.60
2022-11-26T12:56:05.715Z,42.56
2022-11-26T12:58:42.199Z,42.52
2022-11-26T13:01:12.332Z,42.48
2022-11-26T13:03:41.615Z,42.63
2022-11-26T13:06:22.455Z,42.64
2022-11-26T13:08:56.027Z,42.61
2022-11-26T13:11:33.474Z,42.51
2022-11-26T13:14:09.144Z,42.58
2022-11-26T13:16:45.681Z,42.45
2022-11-26T13:19:19.938Z,42.66
2022-11-26T13:22:04.665Z,42.70
2022-11-26T13:24:51.773Z,42.74
2022-11-26T13:27:33.053Z,42.59
2022-11-26T13:30:10.679Z,42.53
2022-11-26T13:33:11.789Z,42.86
2022-11-26T13:36:07.071Z,42.73
2022-11-26T13:38:50.068Z,42.57
2022-11-26T13:41:43.599Z,42.80
2022-11-26T13:44:44.206Z,42.57
2022-11-26T13:47:17.005Z,42.60
2022-11-26T13:49:51.328Z,42.68
2022-11-26T13:52:24.577Z,42.67
2022-11-26T13:54:58.420Z,42.54
2022-11-26T13:57:31.530Z,42.67
2022-11-26T14:00:00.464Z,42.61
2022-11-26T14:02:47.460Z,42.76
2022-11-26T14:05:16.951Z,42.73
2022-11-26T14:07:46.882Z,42.64
2022-11-26T14:10:43.526Z,42.72
2022-11-26T14:13:13.557Z,42.54
2022-11-26T14:16:03.568Z,42.71
2022-11-26T14:19:00.669Z,42.88
2022-11-26T14:21:30.715Z,42.45
2022-11-26T14:24:01.518Z,42.65
2022-11-26T14:26:34.295Z,42.64
2022-11-26T14:29:12.488Z,42.75
2022-11-26T14:31:43.236Z,42.73
2022-11-26T14:34:15.971Z,42.61
2022-11-26T14:36:56.289Z,42.69
2022-11-26T14:39:26.623Z,42.73
2022-11-26T14:42:01.881Z,42.72
2022-11-26T14:44:33.950Z,42.65
2022-11-26T14:47:10.979Z,42.68
2022-11-26T14:49:42.555Z,42.65
2022-11-26T14:52:19.933Z,42.86
2022-11-26T14:54:53.399Z,42.71
2022-11-26T14:57:28.152Z,42.51
2022-11-26T14:59:57.939Z,42.66
2022-11-26T15:02:28.134Z,42.64
2022-11-26T15:05:01.514Z,42.67
2022-11-26T15:07:30.836Z,42.66
2022-11-26T15:10:05.927Z,42.68
2022-11-26T15:12:36.239Z,42.72
2022-11-26T15:15:05.629Z,42.69
2022-11-26T15:17:35.419Z,42.57
2022-11-26T15:20:07.597Z,42.73
2022-11-26T15:22:39.291Z,42.61
2022-11-26T15:25:18.387Z,42.84
2022-11-26T15:27:54.590Z,42.72
2022-11-26T15:30:24.552Z,42.58
2022-11-26T15:32:58.817Z,42.75
2022-11-26T15:35:26.856Z,42.58
2022-11-26T15:37:54.809Z,42.64
2022-11-26T15:40:26.380Z,42.70
2022-11-26T15:42:58.597Z,42.75
2022-11-26T15:45:36.223Z,42.80
2022-11-26T15:48:05.320Z,42.61
2022-11-26T15:50:35.107Z,42.70
2022-11-26T15:53:07.784Z,42.73
2022-11-26T15:55:38.887Z,42.71
2022-11-26T15:58:16.237Z,42.70
2022-11-26T16:00:44.211Z,42.78
2022-11-26T16:03:34.173Z,42.86
2022-11-26T16:06:03.079Z,42.76
2022-11-26T16:08:32.223Z,42.74
2022-11-26T16:11:09.995Z,42.70
2022-11-26T16:13:37.880Z,42.74
2022-11-26T16:16:09.707Z,42.82
2022-11-26T16:18:41.044Z,42.87
2022-11-26T16:21:17.022Z,42.80
2022-11-26T16:23:45.191Z,42.74
2022-11-26T16:26:17.802Z,42.71
2022-11-26T16:28:46.234Z,42.67
2022-11-26T16:31:14.844Z,42.79
2022-11-26T16:33:43.613Z,42.70
2022-11-26T16:36:23.394Z,42.75
2022-11-26T16:38:51.836Z,42.74
2022-11-26T16:41:22.706Z,42.85
2022-11-26T16:43:51.244Z,42.92
2022-11-26T16:46:21.023Z,42.83
2022-11-26T16:48:49.423Z,42.93
2022-11-26T16:51:17.657Z,42.78
2022-11-26T16:53:45.725Z,42.82
2022-11-26T16:56:23.306Z,42.93
2022-11-26T16:58:52.138Z,42.85
2022-11-26T17:01:20.283Z,42.85
2022-11-26T17:03:48.273Z,42.83
2022-11-26T17:06:22.157Z,42.71
2022-11-26T17:08:50.278Z,42.82
2022-11-26T17:11:18.787Z,42.72
2022-11-26T17:13:48.211Z,42.76
2022-11-26T17:16:19.961Z,42.90
2022-11-26T17:18:50.015Z,42.86
2022-11-26T17:21:18.023Z,42.89
2022-11-26T17:23:45.956Z,42.90
2022-11-26T17:26:20.133Z,42.88
2022-11-26T17:28:50.463Z,42.79
2022-11-26T17:31:18.957Z,42.80
2022-11-26T17:33:46.907Z,42.95
2022-11-26T17:36:17.590Z,42.90
2022-11-26T17:38:46.214Z,42.85
2022-11-26T17:41:14.717Z,42.81
2022-11-26T17:43:43.181Z,42.86
2022-11-26T17:46:21.917Z,42.98
2022-11-26T17:48:55.548Z,42.69
2022-11-26T17:51:26.943Z,42.93
2022-11-26T17:53:54.845Z,42.96
2022-11-26T17:56:25.078Z,42.79
2022-11-26T17:58:52.939Z,42.91
2022-11-26T18:01:22.529Z,42.95
2022-11-26T18:03:52.388Z,42.88
2022-11-26T18:06:27.436Z,42.95
2022-11-26T18:08:55.291Z,43.04
2022-11-26T18:11:43.788Z,43.16
2022-11-26T18:14:11.767Z,42.97
2022-11-26T18:16:41.320Z,42.90
2022-11-26T18:19:10.935Z,42.93
2022-11-26T18:21:39.602Z,43.00
2022-11-26T18:24:09.990Z,42.96
2022-11-26T18:26:38.422Z,43.07
2022-11-26T18:29:06.375Z,43.01
2022-11-26T18:31:39.509Z,43.07
2022-11-26T18:34:09.635Z,42.91
2022-11-26T18:36:37.522Z,43.05
2022-11-26T18:39:06.155Z,42.94
2022-11-26T18:41:34.354Z,42.93
2022-11-26T18:44:04.025Z,43.15
2022-11-26T18:46:32.854Z,43.03
2022-11-26T18:49:01.105Z,43.05
2022-11-26T18:51:30.701Z,43.04
2022-11-26T18:53:58.645Z,43.22
2022-11-26T18:56:26.576Z,43.17
2022-11-26T18:58:54.967Z,43.17
2022-11-26T19:01:24.865Z,43.24
2022-11-26T19:03:53.527Z,43.13
2022-11-26T19:06:24.576Z,43.17
2022-11-26T19:08:58.863Z,43.24
2022-11-26T19:11:27.842Z,43.29
2022-11-26T19:13:57.505Z,43.05
2022-11-26T19:16:26.542Z,43.18
2022-11-26T19:18:54.894Z,43.02
2022-11-26T19:21:25.549Z,43.01
2022-11-26T19:23:56.580Z,43.21
2022-11-26T19:26:24.915Z,43.02
2022-11-26T19:28:53.331Z,43.16
2022-11-26T19:31:23.876Z,43.09
2022-11-26T19:33:55.266Z,43.18
2022-11-26T19:36:23.563Z,43.24
2022-11-26T19:38:57.207Z,43.33
2022-11-26T19:41:26.189Z,43.22
2022-11-26T19:43:54.536Z,43.23
2022-11-26T19:46:24.777Z,43.13
2022-11-26T19:48:55.585Z,43.08
2022-11-26T19:51:26.368Z,43.22
2022-11-26T19:53:57.226Z,43.18
2022-11-26T19:56:27.522Z,43.12
2022-11-26T19:58:57.897Z,43.14
2022-11-26T20:01:27.510Z,43.18
2022-11-26T20:03:55.571Z,43.26
2022-11-26T20:06:27.018Z,43.22
2022-11-26T20:08:58.151Z,43.16
2022-11-26T20:11:26.861Z,43.18
2022-11-26T20:13:56.157Z,43.20
2022-11-26T20:16:26.993Z,43.31
2022-11-26T20:18:55.603Z,43.21
2022-11-26T20:21:25.725Z,43.22
2022-11-26T20:23:56.480Z,43.25
2022-11-26T20:26:27.983Z,43.24
2022-11-26T20:28:56.922Z,43.20
2022-11-26T20:31:24.895Z,43.37
2022-11-26T20:33:53.251Z,43.17
2022-11-26T20:36:22.950Z,43.16
2022-11-26T20:38:53.474Z,43.37
2022-11-26T20:41:21.631Z,43.30
2022-11-26T20:43:56.769Z,43.39
2022-11-26T20:46:27.339Z,43.50
2022-11-26T20:48:55.418Z,43.27
2022-11-26T20:51:23.847Z,43.36
2022-11-26T20:53:53.031Z,43.48
2022-11-26T20:56:23.560Z,43.23
2022-11-26T20:58:53.734Z,43.42
2022-11-26T21:01:23.413Z,43.39
2022-11-26T21:03:52.007Z,43.41
2022-11-26T21:06:28.950Z,43.31
2022-11-26T21:08:57.670Z,43.35
2022-11-26T21:11:25.612Z,43.39
2022-11-26T21:13:55.620Z,43.37
2022-11-26T21:16:23.681Z,43.43
2022-11-26T21:18:53.720Z,43.31
2022-11-26T21:21:22.494Z,43.33
2022-11-26T21:23:50.706Z,43.45
2022-11-26T21:26:21.376Z,43.54
2022-11-26T21:28:51.828Z,43.45
2022-11-26T21:31:21.986Z,43.42
2022-11-26T21:33:56.030Z,43.39
2022-11-26T21:36:24.963Z,43.39
2022-11-26T21:38:52.989Z,43.34
2022-11-26T21:41:22.190Z,43.26
2022-11-26T21:43:50.979Z,43.38
2022-11-26T21:46:22.354Z,43.28
2022-11-26T21:48:52.915Z,43.39
2022-11-26T21:51:21.671Z,43.47
2022-11-26T21:53:50.952Z,43.29
2022-11-26T21:56:21.209Z,43.40
2022-11-26T21:58:49.926Z,43.50
2022-11-26T22:01:21.380Z,43.47
2022-11-26T22:03:51.147Z,43.44
2022-11-26T22:06:20.726Z,43.34
2022-11-26T22:08:49.157Z,43.45
2022-11-26T22:11:18.763Z,43.44
2022-11-26T22:13:47.163Z,43.38
2022-11-26T22:16:16.855Z,43.60
2022-11-26T22:18:47.128Z,43.53
2022-11-26T22:21:17.192Z,43.47
2022-11-26T22:23:45.185Z,43.46
2022-11-26T22:26:13.373Z,43.40
2022-11-26T22:28:41.621Z,43.53
2022-11-26T22:31:11.672Z,43.39
2022-11-26T22:33:40.078Z,43.51
2022-11-26T22:36:10.401Z,43.39
2022-11-26T22:38:39.358Z,43.44
2022-11-26T22:41:09.357Z,43.48
2022-11-26T22:43:37.936Z,43.43
2022-11-26T22:46:06.819Z,43.48
2022-11-26T22:48:35.680Z,43.47
2022-11-26T22:51:04.306Z,43.46
2022-11-26T22:53:34.584Z,43.40
2022-11-26T22:56:03.997Z,43.44
2022-11-26T22:58:33.922Z,43.47
2022-11-26T23:01:03.504Z,43.54
2022-11-26T23:03:33.921Z,43.46
2022-11-26T23:06:04.371Z,43.65
2022-11-26T23:08:34.600Z,43.45
2022-11-26T23:11:06.597Z,43.62
2022-11-26T23:13:34.639Z,43.51
2022-11-26T23:16:02.882Z,43.65
2022-11-26T23:18:30.875Z,43.69
2022-11-26T23:21:06.848Z,43.54
2022-11-26T23:23:37.711Z,43.47
2022-11-26T23:26:07.081Z,43.57
2022-11-26T23:28:36.646Z,43.57
2022-11-26T23:31:07.563Z,43.52
2022-11-26T23:33:36.716Z,43.50
2022-11-26T23:36:04.954Z,43.62
2022-11-26T23:38:33.106Z,43.54
2022-11-26T23:41:04.736Z,43.50
2022-11-26T23:43:34.535Z,43.46
2022-11-26T23:46:03.143Z,43.66
2022-11-26T23:48:31.385Z,43.53
2022-11-26T23:50:59.447Z,43.60
2022-11-26T23:53:27.683Z,43.55
2022-11-26T23:55:55.607Z,43.66
2022-11-26T23:58:24.958Z,43.57
